Latest Coastal Weather Observations for Geraldton Airport

IDW60701

Issued at 2:23 am WST Saturday 1 October 2016 (issued every 10 minutes, with the page automatically refreshed every 10 minutes)

About coastal observations | Map of coastal stations | Coastal observations for WA | Marine services | Other Formats
Station Details ID: 008315 Name: GERALDTON AIRPORT Lat: -28.80 Lon: 114.70 Height: 29.7 m
Data from the previous 72 hours. | See also: Recent months at Geraldton Airport
Date/Time
WST
Temp
°C
Wind Pressure Rain since
9am
mm
Weather Cloud Vis
km
Sea
Height
m
Swell
Dir  Spd
kts
Gust
kts
hPa Trend Height
m
Period
s
Dir
01/02:00am 14.2 WNW 7 9 1008.8 - 1.2 - Partly cloudy 10 - - - -
01/01:30am 13.9 WNW 7 7 1009.0 - 1.2 - Partly cloudy 10 - - - -
01/01:00am 14.6 WNW 7 9 1009.3 - 1.2 - Partly cloudy 10 - - - -
01/12:30am 13.3 N 7 7 1009.4 - 1.2 - Partly cloudy 10 - - - -
01/12:00am 14.1 NNW 6 8 1009.7 - 1.2 - Partly cloudy 10 - - - -
 
Date/Time
WST
Temp
°C
Wind Pressure Rain since
9am
mm
Weather Cloud Vis
km
Sea
Height
m
Swell
Dir  Spd
kts
Gust
kts
hPa Trend Height
m
Period
s
Dir
30/11:45pm 14.6 NW 7 8 1009.8 - 1.2 - Partly cloudy 10 - - - -
30/11:30pm 14.6 WNW 9 13 1010.1 - 1.0 - Partly cloudy 4 - - - -
30/11:24pm 14.8 WNW 10 13 1010.2 - 1.0 - Partly cloudy 6 - - - -
30/11:00pm 14.7 WSW 7 10 1010.2 - 0.6 - Partly cloudy 10 - - - -
30/10:58pm 14.7 SW 7 10 1010.2 - 0.6 - Partly cloudy 10 - - - -
30/10:42pm 14.7 WSW 11 15 1010.5 - 0.6 - Partly cloudy 6 - - - -
30/10:30pm 14.8 SW 10 18 1010.6 - 0.6 - Partly cloudy 10 - - - -
30/10:00pm 15.5 WSW 8 11 1010.6 - 0.6 - Partly cloudy 10 - - - -
30/09:30pm 15.7 W 9 11 1010.7 - 0.6 - Cloudy 10 - - - -
30/09:00pm 15.6 W 9 12 1010.6 - 0.6 - Partly cloudy 10 - - - -
30/08:30pm 15.3 WSW 8 11 1010.7 - 0.6 - Partly cloudy 10 - - - -
30/08:00pm 14.6 W 7 8 1010.5 - 0.6 - Partly cloudy 10 - - - -
30/07:30pm 15.1 W 7 10 1010.4 - 0.6 - Partly cloudy 10 - - - -
30/07:00pm 15.7 NW 4 7 1010.5 - 0.6 - Partly cloudy 10 - - - -
30/06:48pm 15.6 WNW 3 4 1010.4 - 0.6 - Partly cloudy 10 - - - -
30/06:38pm 15.5 WNW 5 7 1010.4 - 0.6 - Partly cloudy 10 - - - -
30/06:34pm 15.5 WNW 6 9 1010.4 - 0.6 - Partly cloudy 10 - - - -
30/06:30pm 15.4 NW 7 9 1010.4 - 0.6 - Partly cloudy 10 - - - -
30/06:29pm 15.4 NW 7 9 1010.4 - 0.6 - Partly cloudy 10 - - - -
30/06:10pm 15.4 WNW 9 12 1010.3 - 0.4 - Partly cloudy 6 - - - -
30/06:05pm 15.5 WNW 8 11 1010.3 - 0.2 - Partly cloudy 10 - - - -
30/06:00pm 15.4 WNW 8 11 1010.3 - 0.2 - Cloudy 10 - - - -
30/05:50pm 15.4 W 8 13 1010.3 - 0.2 - Partly cloudy 10 - - - -
30/05:47pm 15.3 W 9 13 1010.4 - 0.2 - Partly cloudy 7 - - - -
30/05:30pm 15.2 W 13 16 1010.4 - 0.2 - Partly cloudy 3 - - - -
30/05:18pm 15.6 WNW 11 19 1010.4 - 0.2 - Partly cloudy 3 - - - -
30/05:05pm 15.9 WNW 13 19 1010.4 - 0.0 - Partly cloudy 6 - - - -
30/05:00pm 16.6 WNW 13 17 1010.2 - 0.0 - Partly cloudy 10 - - - -
30/04:30pm 18.4 WNW 13 19 1010.0 - 0.0 - Partly cloudy 10 - - - -
30/04:00pm 18.7 WNW 13 19 1010.0 - 0.0 - Partly cloudy 10 - - - -
30/03:30pm 18.6 WNW 14 19 1010.2 - 0.0 - Partly cloudy 10 - - - -
30/03:00pm 19.5 WNW 13 19 1010.1 - 0.0 - Mostly cloudy 10 - - - -
30/02:30pm 19.4 WNW 13 19 1010.1 - 0.0 - - 10 - - - -
30/02:00pm 19.2 W 13 22 1010.5 - 0.0 - Partly cloudy 10 - - - -
30/01:30pm 19.6 W 13 18 1010.7 - 0.0 - Partly cloudy 10 - - - -
30/01:00pm 19.5 WNW 12 19 1010.9 - 0.0 - Partly cloudy 10 - - - -
30/12:30pm 19.4 W 11 18 1011.2 - 0.0 - - 10 - - - -
30/12:00pm 19.5 W 12 17 1011.4 - 0.0 - Mostly clear 10 - - - -
30/11:30am 18.6 W 11 17 1011.8 - 0.0 - - 10 - - - -
30/11:00am 19.5 WSW 10 17 1011.8 - 0.0 - Partly cloudy 10 - - - -
30/10:30am 18.7 WSW 12 17 1012.1 - 0.0 - Partly cloudy 10 - - - -
30/10:00am 18.6 SW 10 14 1012.2 - 0.0 - Partly cloudy 10 - - - -
30/09:30am 16.2 N 4 5 1012.3 - 0.0 - Cloudy 10 - - - -
30/09:00am 14.2 NNE 7 8 1012.3 - 0.0 - Cloudy 10 - - - -
30/08:30am 12.2 NNE 8 10 1012.4 - 0.0 - Cloudy 10 - - - -
30/08:00am 10.7 NNE 9 13 1012.3 - 0.0 - Cloudy 10 - - - -
30/07:30am 9.2 NNE 9 11 1012.4 - 0.0 - Partly cloudy 10 - - - -
30/07:00am 8.0 NNE 9 11 1012.4 - 0.0 - Partly cloudy 10 - - - -
30/06:30am 6.9 NNE 11 14 1011.9 - 0.0 - Partly cloudy 10 - - - -
30/06:00am 6.1 NNE 10 12 1011.6 - 0.0 - Partly cloudy 10 - - - -
30/05:30am 5.8 NNE 10 11 1011.6 - 0.0 - Partly cloudy 10 - - - -
30/05:00am 6.1 NNE 8 10 1011.7 - 0.0 - Partly cloudy 10 - - - -
30/04:30am 5.7 NNE 9 11 1011.5 - 0.0 - Partly cloudy 10 - - - -
30/04:00am 5.4 NNE 10 12 1011.3 - 0.0 - - 10 - - - -
30/03:30am 5.6 NNE 8 9 1011.8 - 0.0 - Partly cloudy 10 - - - -
30/03:00am 5.6 N 6 8 1012.0 - 0.0 - Mostly clear 10 - - - -
30/02:30am 5.6 NNE 8 9 1011.6 - 0.0 - - 10 - - - -
30/02:00am 5.9 NNE 7 9 1012.0 - 0.0 - - 10 - - - -
30/01:30am 5.8 NNE 7 8 1012.5 - 0.0 - - 10 - - - -
30/01:00am 5.9 NNE 6 7 1012.5 - 0.0 - - 10 - - - -
30/12:30am 5.9 NE 6 7 1012.9 - 0.0 - - 10 - - - -
30/12:00am 5.8 NE 5 5 1013.0 - 0.0 - - 10 - - - -
 
Date/Time
WST
Temp
°C
Wind Pressure Rain since
9am
mm
Weather Cloud Vis
km
Sea
Height
m
Swell
Dir  Spd
kts
Gust
kts
hPa Trend Height
m
Period
s
Dir
29/11:30pm 5.9 ENE 3 4 1013.5 - 0.0 - - 10 - - - -
29/11:00pm 6.4 E 4 5 1013.6 - 0.0 - - 10 - - - -
29/10:30pm 7.1 ENE 3 4 1014.0 - 0.0 - - 10 - - - -
29/10:00pm 7.5 E 4 5 1014.2 - 0.0 - - 10 - - - -
29/09:30pm 7.9 CALM 0 1 1014.6 - 0.0 - - 10 - - - -
29/09:00pm 8.6 SE 4 5 1014.7 - 0.0 - - 10 - - - -
29/08:30pm 10.2 S 6 7 1014.6 - 0.0 - - 10 - - - -
29/08:00pm 11.3 SSW 8 9 1014.7 - 0.0 - - 10 - - - -
29/07:30pm 11.9 S 8 9 1014.6 - 0.0 - - 10 - - - -
29/07:00pm 12.5 S 8 10 1014.6 - 0.0 - - 10 - - - -
29/06:30pm 13.9 S 8 11 1014.3 - 0.0 - - 10 - - - -
29/06:00pm 15.4 SSW 11 15 1014.3 - 0.0 - - 10 - - - -
29/05:30pm 16.4 S 12 17 1014.1 - 0.0 - - 10 - - - -
29/05:00pm 17.3 S 13 18 1014.0 - 0.0 - - 10 - - - -
29/04:30pm 18.1 SSW 13 17 1014.1 - 0.0 - - 10 - - - -
29/04:00pm 18.1 SSW 14 18 1013.9 - 0.0 - - 10 - - - -
29/03:30pm 18.9 SSW 13 18 1014.0 - 0.0 - - 10 - - - -
29/03:00pm 19.7 SSW 12 18 1014.2 - 0.0 - - 10 - - - -
29/02:30pm 19.9 SSW 11 15 1014.5 - 0.0 - - 10 - - - -
29/02:00pm 19.6 SW 13 17 1014.9 - 0.0 - - 10 - - - -
29/01:30pm 20.4 SSW 12 18 1015.5 - 0.0 - - 10 - - - -
29/01:00pm 20.0 SW 12 16 1016.0 - 0.0 - - 10 - - - -
29/12:30pm 21.8 S 5 7 1016.2 - 0.0 - - 10 - - - -
29/12:00pm 21.1 N 4 7 1016.8 - 0.0 - - 10 - - - -
29/11:30am 20.4 E 5 10 1017.5 - 0.0 - - 10 - - - -
29/11:00am 20.0 NE 6 10 1018.1 - 0.0 - - 10 - - - -
29/10:30am 19.2 NNE 10 14 1018.7 - 0.0 - - 10 - - - -
29/10:00am 18.3 NE 10 15 1019.1 - 0.0 - - 10 - - - -
29/09:30am 17.2 NE 12 16 1019.4 - 0.0 - - 10 - - - -
29/09:00am 16.2 ENE 15 19 1019.7 - 0.0 - - 10 - - - -
29/08:30am 14.8 ENE 13 19 1019.7 - 0.0 - - 10 - - - -
29/08:00am 13.5 ENE 12 17 1019.9 - 0.0 - - 10 - - - -
29/07:30am 11.3 NE 9 12 1019.9 - 0.0 - - 10 - - - -
29/07:00am 8.6 NE 9 11 1019.9 - 0.0 - - 10 - - - -
29/06:30am 6.4 NNE 8 9 1019.7 - 0.0 - - 10 - - - -
29/06:00am 5.3 N 7 9 1019.5 - 0.0 - - 10 - - - -
29/05:30am 5.1 N 4 5 1019.2 - 0.0 - - 10 - - - -
29/05:00am 5.0 N 5 6 1019.1 - 0.0 - - 10 - - - -
29/04:30am 5.3 N 5 7 1019.2 - 0.0 - - 10 - - - -
29/04:00am 5.1 NE 5 8 1019.3 - 0.0 - - 10 - - - -
29/03:30am 4.0 E 3 5 1019.5 - 0.0 - - 10 - - - -
29/03:00am 3.7 SSE 2 4 1019.7 - 0.0 - - 10 - - - -
29/02:30am 3.0 SE 6 7 1019.7 - 0.0 - - 10 - - - -
29/02:00am 3.9 SE 7 8 1020.2 - 0.0 - - 10 - - - -
29/01:30am 4.2 SE 5 6 1020.5 - 0.0 - - 10 - - - -
29/01:00am 4.6 SSE 7 8 1020.6 - 0.0 - - 10 - - - -
29/12:30am 5.3 SSE 5 6 1021.0 - 0.0 - - 10 - - - -
29/12:00am 6.0 SSE 9 10 1021.1 - 0.0 - - 10 - - - -
 
Date/Time
WST
Temp
°C
Wind Pressure Rain since
9am
mm
Weather Cloud Vis
km
Sea
Height
m
Swell
Dir  Spd
kts
Gust
kts
hPa Trend Height
m
Period
s
Dir
28/11:30pm 6.2 SSE 8 8 1021.1 - 0.0 - - 10 - - - -
28/11:00pm 7.0 SE 7 8 1021.2 - 0.0 - - 10 - - - -
28/10:30pm 8.2 SSE 8 10 1021.5 - 0.0 - - 10 - - - -
28/10:00pm 9.4 SSE 9 11 1021.4 - 0.0 - - 10 - - - -
28/09:30pm 10.5 SE 11 14 1021.4 - 0.0 - - 10 - - - -
28/09:00pm 10.4 SE 8 10 1021.5 - 0.0 - - 10 - - - -
28/08:30pm 11.3 SE 7 9 1021.1 - 0.0 - - 10 - - - -
28/08:00pm 12.8 SSE 9 13 1020.9 - 0.0 - - 10 - - - -
28/07:30pm 13.2 SSE 11 15 1020.9 - 0.0 - - 10 - - - -
28/07:00pm 13.6 S 12 16 1020.9 - 0.0 - - 10 - - - -
28/06:30pm 14.1 S 12 16 1020.9 - 0.0 - - 10 - - - -
28/06:00pm 14.8 S 15 21 1020.8 - 0.0 - - 10 - - - -
28/05:30pm 15.5 S 17 23 1020.4 - 0.0 - - 10 - - - -
28/05:00pm 16.1 S 15 21 1020.2 - 0.0 - - 10 - - - -
28/04:30pm 16.5 S 16 23 1020.1 - 0.0 - - 10 - - - -
28/04:00pm 16.9 S 16 22 1020.1 - 0.0 - - 10 - - - -
28/03:30pm 17.3 S 16 21 1020.0 - 0.0 - - 10 - - - -
28/03:00pm 17.2 S 17 23 1020.4 - 0.0 - - 10 - - - -
28/02:30pm 17.9 S 17 23 1020.4 - 0.0 - Mostly clear 10 - - - -
28/02:00pm 18.0 S 13 21 1020.7 - 0.0 - Mostly clear 10 - - - -
28/01:30pm 18.5 S 14 22 1020.9 - 0.0 - Partly cloudy 10 - - - -
28/01:00pm 17.9 SSE 13 19 1021.4 - 0.0 - Partly cloudy 10 - - - -
28/12:30pm 18.9 SE 10 15 1021.6 - 0.0 - Mostly clear 10 - - - -
28/12:00pm 18.1 S 14 19 1021.8 - 0.0 - Mostly clear 10 - - - -
28/11:30am 17.6 S 15 22 1022.1 - 0.0 - Mostly clear 10 - - - -
28/11:00am 16.9 SSE 16 23 1022.5 - 0.0 - Partly cloudy 10 - - - -
28/10:30am 16.6 SSE 15 20 1022.9 - 0.0 - Partly cloudy 10 - - - -
28/10:00am 16.3 SSE 14 20 1022.9 - 0.0 - Partly cloudy 10 - - - -
28/09:30am 15.0 SE 13 18 1022.9 - 0.0 - Mostly clear 10 - - - -
28/09:00am 14.7 SE 13 17 1023.1 - 1.4 - Cloudy 10 - - - -
28/08:30am 13.5 SE 13 17 1022.8 - 1.4 - Mostly cloudy 10 - - - -
28/08:00am 12.9 SE 9 14 1022.6 - 1.4 - Mostly clear 10 - - - -
28/07:30am 12.4 SE 10 15 1022.2 - 1.4 - Mostly clear 10 - - - -
28/07:00am 12.1 SE 9 12 1021.8 - 1.4 - Mostly cloudy 10 - - - -
28/06:30am 12.1 SE 6 9 1021.4 - 1.4 - Cloudy 10 - - - -
28/06:00am 13.6 S 13 19 1021.0 - 1.4 - Mostly cloudy 10 - - - -
28/05:30am 13.3 SSW 10 13 1020.6 - 1.4 - Cloudy 10 - - - -
28/05:00am 13.6 S 11 15 1020.3 - 1.4 - Cloudy 10 - - - -
28/04:30am 13.9 S 14 19 1020.0 - 1.4 - Cloudy 10 - - - -
28/04:00am 13.9 S 11 17 1019.7 - 1.4 - Cloudy 10 - - - -
28/03:30am 13.8 S 14 20 1019.5 - 1.4 - Partly cloudy 10 - - - -
28/03:00am 13.0 SSW 8 11 1019.5 - 1.4 - Mostly cloudy 10 - - - -
28/02:30am 13.7 SSW 15 22 1019.4 - 1.4 - Partly cloudy 10 - - - -

Other Formats:

Comma delimited format used in spreadsheet applications
http://www.bom.gov.au/fwo/IDW60701/IDW60701.94403.axf

JavaScript Object Notation format (JSON) in row-major order
http://www.bom.gov.au/fwo/IDW60701/IDW60701.94403.json